createdAt,value
2022-12-09T00:01:19.422Z,8.60
2022-12-09T00:03:48.790Z,9.60
2022-12-09T00:06:25.795Z,8.80
2022-12-09T00:08:56.063Z,9.10
2022-12-09T00:11:36.589Z,8.90
2022-12-09T00:14:11.549Z,9.30
2022-12-09T00:16:46.002Z,9.50
2022-12-09T00:19:16.917Z,9.10
2022-12-09T00:21:45.291Z,8.00
2022-12-09T00:24:14.771Z,8.80
2022-12-09T00:26:43.445Z,6.60
2022-12-09T00:29:12.387Z,8.90
2022-12-09T00:31:41.403Z,8.40
2022-12-09T00:34:12.974Z,8.30
2022-12-09T00:36:41.511Z,9.00
2022-12-09T00:39:12.811Z,8.00
2022-12-09T00:41:41.468Z,8.70
2022-12-09T00:44:10.485Z,8.50
2022-12-09T00:46:39.127Z,7.00
2022-12-09T00:49:07.602Z,8.50
2022-12-09T00:51:36.177Z,7.60
2022-12-09T00:54:04.734Z,9.00
2022-12-09T00:56:33.719Z,8.00
2022-12-09T00:59:02.127Z,7.70
2022-12-09T01:01:30.537Z,7.20
2022-12-09T01:03:59.900Z,8.20
2022-12-09T01:06:28.750Z,8.30
2022-12-09T01:08:57.396Z,7.90
2022-12-09T01:11:28.617Z,8.80
2022-12-09T01:14:03.136Z,8.10
2022-12-09T01:16:35.035Z,7.40
2022-12-09T01:19:06.839Z,8.40
2022-12-09T01:21:36.093Z,6.30
2022-12-09T01:24:11.469Z,7.40
2022-12-09T01:26:40.971Z,7.80
2022-12-09T01:29:09.148Z,7.10
2022-12-09T01:31:37.500Z,8.00
2022-12-09T01:34:06.376Z,7.40
2022-12-09T01:36:34.923Z,7.20
2022-12-09T01:39:05.680Z,7.50
2022-12-09T01:41:35.124Z,8.20
2022-12-09T01:44:13.143Z,7.70
2022-12-09T01:46:47.054Z,6.00
2022-12-09T01:49:24.481Z,7.80
2022-12-09T01:52:01.089Z,8.00
2022-12-09T01:54:31.335Z,7.90
2022-12-09T01:56:59.913Z,7.50
2022-12-09T01:59:29.362Z,7.30
2022-12-09T02:02:02.411Z,7.00
2022-12-09T02:04:35.007Z,7.00
2022-12-09T02:07:08.857Z,7.70
2022-12-09T02:09:40.129Z,8.40
2022-12-09T02:12:35.803Z,7.40
2022-12-09T02:15:10.626Z,8.20
2022-12-09T02:18:01.087Z,7.20
2022-12-09T02:20:45.590Z,8.30
2022-12-09T02:23:35.891Z,7.40
2022-12-09T02:26:40.833Z,8.10
2022-12-09T02:29:25.009Z,7.00
2022-12-09T02:32:02.988Z,7.80
2022-12-09T02:34:41.173Z,7.70
2022-12-09T02:37:19.134Z,7.90
2022-12-09T02:40:06.795Z,8.30
2022-12-09T02:42:39.195Z,7.80
2022-12-09T02:45:10.110Z,7.30
2022-12-09T02:47:44.782Z,7.00
2022-12-09T02:50:17.292Z,7.20
2022-12-09T02:52:47.323Z,7.70
2022-12-09T02:55:18.483Z,8.50
2022-12-09T02:57:49.376Z,7.90
2022-12-09T03:00:19.019Z,8.70
2022-12-09T03:02:51.514Z,8.70
2022-12-09T03:05:26.102Z,8.10
2022-12-09T03:08:12.712Z,8.30
2022-12-09T03:11:00.466Z,7.60
2022-12-09T03:13:49.866Z,7.70
2022-12-09T03:16:21.130Z,7.50
2022-12-09T03:19:00.776Z,8.10
2022-12-09T03:21:32.924Z,8.00
2022-12-09T03:24:02.575Z,8.80
2022-12-09T03:26:33.963Z,8.50
2022-12-09T03:29:07.561Z,8.70
2022-12-09T03:31:38.899Z,8.30
2022-12-09T03:34:11.598Z,7.60
2022-12-09T03:36:42.247Z,8.40
2022-12-09T03:39:15.563Z,8.10
2022-12-09T03:41:49.344Z,8.30
2022-12-09T03:44:26.083Z,8.00
2022-12-09T03:46:55.026Z,9.00
2022-12-09T03:49:23.581Z,9.40
2022-12-09T03:52:03.110Z,9.20
2022-12-09T03:54:47.877Z,9.40
2022-12-09T03:57:19.823Z,11.30
2022-12-09T03:59:54.159Z,12.50
2022-12-09T04:02:23.634Z,9.80
2022-12-09T04:04:52.423Z,7.90
2022-12-09T04:07:20.842Z,8.50
2022-12-09T04:09:49.383Z,8.90
2022-12-09T04:12:18.348Z,9.10
2022-12-09T04:14:47.123Z,8.70
2022-12-09T04:17:18.041Z,9.20
2022-12-09T04:19:47.270Z,9.80
2022-12-09T04:22:16.354Z,9.40
2022-12-09T04:24:44.763Z,9.10
2022-12-09T04:27:13.308Z,9.20
2022-12-09T04:29:41.665Z,9.40
2022-12-09T04:32:10.255Z,9.00
2022-12-09T04:34:38.609Z,8.20
2022-12-09T04:37:07.611Z,8.90
2022-12-09T04:39:36.105Z,9.00
2022-12-09T04:42:05.678Z,8.80
2022-12-09T04:44:34.283Z,8.30
2022-12-09T04:47:02.713Z,8.60
2022-12-09T04:49:31.683Z,8.70
2022-12-09T04:52:00.151Z,9.20
2022-12-09T04:54:28.916Z,9.20
2022-12-09T04:56:57.295Z,8.30
2022-12-09T04:59:25.599Z,8.00
2022-12-09T05:01:54.080Z,8.40
2022-12-09T05:04:23.154Z,8.60
2022-12-09T05:06:51.397Z,9.20
2022-12-09T05:09:19.826Z,8.80
2022-12-09T05:11:49.080Z,8.50
2022-12-09T05:14:17.541Z,8.40
2022-12-09T05:16:46.183Z,8.70
2022-12-09T05:19:15.474Z,10.40
2022-12-09T05:21:46.388Z,9.70
2022-12-09T05:24:14.911Z,9.80
2022-12-09T05:26:43.618Z,9.20
2022-12-09T05:29:12.760Z,8.30
2022-12-09T05:31:44.030Z,8.10
2022-12-09T05:34:12.560Z,8.20
2022-12-09T05:36:41.446Z,10.50
2022-12-09T05:39:10.498Z,11.10
2022-12-09T05:41:39.492Z,10.20
2022-12-09T05:44:08.255Z,8.50
2022-12-09T05:46:36.869Z,8.90
2022-12-09T05:49:05.759Z,8.70
2022-12-09T05:51:34.562Z,10.50
2022-12-09T05:54:06.448Z,12.30
2022-12-09T05:56:35.384Z,8.10
2022-12-09T05:59:05.004Z,9.20
2022-12-09T06:01:33.641Z,8.70
2022-12-09T06:04:02.233Z,8.10
2022-12-09T06:06:32.412Z,8.70
2022-12-09T06:09:02.802Z,8.10
2022-12-09T06:11:33.382Z,9.90
2022-12-09T06:14:02.867Z,8.40
2022-12-09T06:16:32.094Z,9.50
2022-12-09T06:19:02.112Z,9.00
2022-12-09T06:21:31.115Z,9.10
2022-12-09T06:23:59.453Z,10.70
2022-12-09T06:26:30.362Z,10.00
2022-12-09T06:29:00.028Z,18.10
2022-12-09T06:31:30.184Z,13.30
2022-12-09T06:34:00.047Z,10.50
2022-12-09T06:36:31.437Z,10.40
2022-12-09T06:39:09.598Z,8.50
2022-12-09T06:41:43.488Z,9.20
2022-12-09T06:44:17.217Z,9.40
2022-12-09T06:46:50.352Z,10.00
2022-12-09T06:49:19.157Z,9.80
2022-12-09T06:51:48.520Z,10.00
2022-12-09T06:54:17.349Z,9.20
2022-12-09T06:56:45.974Z,9.60
2022-12-09T06:59:14.928Z,9.80
2022-12-09T07:01:44.139Z,10.40
2022-12-09T07:04:15.859Z,9.80
2022-12-09T07:06:46.545Z,10.10
2022-12-09T07:09:22.097Z,10.10
2022-12-09T07:11:52.174Z,10.50
2022-12-09T07:14:21.390Z,9.40
2022-12-09T07:16:50.609Z,10.70
2022-12-09T07:19:22.990Z,10.40
2022-12-09T07:21:52.452Z,11.30
2022-12-09T07:24:21.528Z,13.50
2022-12-09T07:26:52.178Z,16.30
2022-12-09T07:29:20.963Z,14.10
2022-12-09T07:31:50.727Z,13.20
2022-12-09T07:34:20.456Z,11.80
2022-12-09T07:36:50.169Z,11.70
2022-12-09T07:39:20.655Z,11.30
2022-12-09T07:41:55.607Z,11.50
2022-12-09T07:44:41.224Z,10.50
2022-12-09T07:47:11.144Z,8.50
2022-12-09T07:49:41.510Z,8.70
2022-12-09T07:52:11.458Z,8.20
2022-12-09T07:54:40.029Z,8.80
2022-12-09T07:57:09.388Z,9.00
2022-12-09T07:59:38.574Z,9.30
2022-12-09T08:02:08.954Z,9.90
2022-12-09T08:04:37.870Z,9.00
2022-12-09T08:07:07.461Z,9.60
2022-12-09T08:09:36.838Z,8.70
2022-12-09T08:12:06.189Z,8.70
2022-12-09T08:14:34.879Z,8.90
2022-12-09T08:17:03.568Z,8.70
2022-12-09T08:19:32.408Z,7.40
2022-12-09T08:22:02.436Z,9.40
2022-12-09T08:24:31.410Z,9.70
2022-12-09T08:27:01.155Z,10.40
2022-12-09T08:29:30.169Z,11.40
2022-12-09T08:31:59.935Z,10.90
2022-12-09T08:34:29.966Z,10.90
2022-12-09T08:37:02.203Z,10.00
2022-12-09T08:39:31.898Z,9.90
2022-12-09T08:42:00.921Z,9.30
2022-12-09T08:44:29.844Z,8.50
2022-12-09T08:46:58.568Z,9.70
2022-12-09T08:49:28.406Z,10.00
2022-12-09T08:51:58.281Z,10.00
2022-12-09T08:54:29.495Z,10.30
2022-12-09T08:56:59.800Z,10.10
2022-12-09T08:59:29.544Z,9.40
2022-12-09T09:01:58.735Z,10.40
2022-12-09T09:04:28.958Z,9.60
2022-12-09T09:06:58.850Z,9.80
2022-12-09T09:09:28.548Z,9.80
2022-12-09T09:11:57.998Z,9.60
2022-12-09T09:14:29.267Z,7.80
2022-12-09T09:16:59.344Z,9.50
2022-12-09T09:19:28.630Z,9.70
2022-12-09T09:21:58.701Z,9.90
2022-12-09T09:24:28.236Z,9.40
2022-12-09T09:26:58.850Z,12.50
2022-12-09T09:29:28.855Z,11.30
2022-12-09T09:31:58.310Z,8.70
2022-12-09T09:34:28.439Z,9.20
2022-12-09T09:36:57.834Z,9.50
2022-12-09T09:39:27.309Z,11.70
2022-12-09T09:42:04.404Z,8.70
2022-12-09T09:44:41.148Z,8.60
2022-12-09T09:47:38.656Z,9.80
2022-12-09T09:50:19.566Z,8.70
2022-12-09T09:52:53.321Z,10.10
2022-12-09T09:55:36.782Z,8.70
2022-12-09T09:58:18.968Z,8.60
2022-12-09T10:01:06.810Z,6.20
2022-12-09T10:04:01.441Z,7.50
2022-12-09T10:06:42.427Z,8.10
2022-12-09T10:09:23.898Z,8.70
2022-12-09T10:12:13.241Z,9.20
2022-12-09T10:14:58.254Z,10.00
2022-12-09T10:17:35.265Z,9.30
2022-12-09T10:20:13.077Z,12.00
2022-12-09T10:23:02.988Z,11.40
2022-12-09T10:25:44.871Z,10.00
2022-12-09T10:28:24.674Z,10.10
2022-12-09T10:30:56.521Z,9.70
2022-12-09T10:33:35.485Z,9.00
2022-12-09T10:36:06.397Z,11.50
2022-12-09T10:38:41.835Z,8.40
2022-12-09T10:41:48.106Z,9.50
2022-12-09T10:44:23.200Z,6.10
2022-12-09T10:47:09.610Z,9.30
2022-12-09T10:49:43.336Z,7.70
2022-12-09T10:52:27.701Z,8.10
2022-12-09T10:54:58.838Z,7.40
2022-12-09T10:57:31.316Z,9.00
2022-12-09T11:00:09.564Z,9.80
2022-12-09T11:02:51.424Z,8.60
2022-12-09T11:05:20.732Z,9.10
2022-12-09T11:07:52.231Z,8.90
2022-12-09T11:10:25.386Z,8.80
2022-12-09T11:13:08.097Z,7.90
2022-12-09T11:15:55.568Z,8.40
2022-12-09T11:18:30.201Z,7.60
2022-12-09T11:21:02.322Z,7.30
2022-12-09T11:23:32.590Z,8.80
2022-12-09T11:26:15.695Z,8.20
2022-12-09T11:28:44.702Z,25.10
2022-12-09T11:31:33.699Z,10.70
2022-12-09T11:34:06.444Z,9.80
2022-12-09T11:36:44.082Z,9.30
2022-12-09T11:39:28.976Z,8.20
2022-12-09T11:42:20.054Z,9.70
2022-12-09T11:44:52.667Z,7.40
2022-12-09T11:48:24.086Z,7.90
2022-12-09T11:50:42.482Z,8.90
2022-12-09T11:53:11.010Z,9.50
2022-12-09T11:55:56.412Z,8.90
2022-12-09T11:58:36.694Z,8.50
2022-12-09T12:01:16.146Z,9.60
2022-12-09T12:03:57.220Z,8.50
2022-12-09T12:06:30.623Z,9.60
2022-12-09T12:09:30.234Z,10.90
2022-12-09T12:12:20.283Z,8.80
2022-12-09T12:14:49.027Z,8.70
2022-12-09T12:17:37.399Z,10.30
2022-12-09T12:20:07.879Z,10.20
2022-12-09T12:22:47.997Z,9.50
2022-12-09T12:25:36.000Z,9.50
2022-12-09T12:28:53.406Z,9.80
2022-12-09T12:31:53.273Z,9.70
2022-12-09T12:34:39.064Z,9.80
2022-12-09T12:37:33.539Z,9.20
2022-12-09T12:40:26.954Z,8.20
2022-12-09T12:43:52.463Z,9.80
2022-12-09T12:46:22.125Z,9.70
2022-12-09T12:49:13.083Z,6.60
2022-12-09T12:52:32.778Z,10.40
2022-12-09T12:55:22.832Z,9.30
2022-12-09T12:58:19.193Z,9.30
2022-12-09T13:01:01.569Z,10.90
2022-12-09T13:03:58.240Z,10.60
2022-12-09T13:06:55.273Z,10.60
2022-12-09T13:09:46.297Z,10.50
2022-12-09T13:12:46.538Z,10.50
2022-12-09T13:15:18.678Z,9.90
2022-12-09T13:17:48.667Z,10.20
2022-12-09T13:20:25.577Z,10.70
2022-12-09T13:23:04.335Z,12.80
2022-12-09T13:26:03.873Z,10.80
2022-12-09T13:28:55.254Z,9.60
2022-12-09T13:31:30.994Z,10.20
2022-12-09T13:34:09.111Z,9.10
2022-12-09T13:36:42.721Z,8.80
2022-12-09T13:39:14.650Z,9.80
2022-12-09T13:42:06.413Z,10.20
2022-12-09T13:44:38.004Z,12.30
2022-12-09T13:47:28.791Z,10.40
2022-12-09T13:50:01.883Z,10.20
2022-12-09T13:52:45.669Z,10.20
2022-12-09T13:55:37.404Z,10.00
2022-12-09T13:58:33.156Z,10.10
2022-12-09T14:01:08.315Z,10.00
2022-12-09T14:03:59.024Z,11.00
2022-12-09T14:06:59.608Z,10.30
2022-12-09T14:10:01.695Z,11.20
2022-12-09T14:12:33.282Z,10.50
2022-12-09T14:15:22.960Z,11.10
2022-12-09T14:17:52.249Z,11.40
2022-12-09T14:20:24.745Z,13.00
2022-12-09T14:23:10.351Z,12.10
2022-12-09T14:25:51.450Z,12.50
2022-12-09T14:28:26.635Z,11.70
2022-12-09T14:31:06.591Z,12.30
2022-12-09T14:33:47.700Z,5.70
2022-12-09T14:36:17.095Z,14.10
2022-12-09T14:42:00.277Z,11.60
2022-12-09T14:45:04.192Z,10.00
2022-12-09T14:47:41.546Z,9.80
2022-12-09T14:50:17.361Z,11.80
2022-12-09T14:52:55.506Z,13.00
2022-12-09T14:55:26.911Z,13.20
2022-12-09T14:57:59.172Z,11.20
2022-12-09T15:00:40.586Z,10.80
2022-12-09T15:03:36.847Z,11.10
2022-12-09T15:06:18.121Z,9.70
2022-12-09T15:08:51.405Z,11.60
2022-12-09T15:11:24.612Z,12.30
2022-12-09T15:13:55.984Z,12.50
2022-12-09T15:16:26.334Z,12.00
2022-12-09T15:18:55.122Z,12.30
2022-12-09T15:21:32.196Z,10.30
2022-12-09T15:24:01.879Z,11.10
2022-12-09T15:26:33.117Z,10.60
2022-12-09T15:29:05.395Z,12.20
2022-12-09T15:31:35.203Z,12.40
2022-12-09T15:34:21.815Z,12.60
2022-12-09T15:37:06.197Z,12.90
2022-12-09T15:39:43.731Z,14.70
2022-12-09T15:42:17.563Z,13.40
2022-12-09T15:45:00.718Z,14.80
2022-12-09T15:47:51.328Z,11.30
2022-12-09T15:51:01.338Z,11.80
2022-12-09T15:53:36.845Z,10.20
2022-12-09T15:56:14.323Z,14.30
2022-12-09T15:58:48.761Z,12.00
2022-12-09T16:01:35.784Z,11.90
2022-12-09T16:04:07.430Z,10.60
2022-12-09T16:06:38.575Z,12.00
2022-12-09T16:09:16.189Z,13.20
2022-12-09T16:11:48.847Z,15.40
2022-12-09T16:14:20.253Z,13.70
2022-12-09T16:16:58.570Z,13.00
2022-12-09T16:19:34.238Z,13.50
2022-12-09T16:22:43.230Z,14.20
2022-12-09T16:25:25.750Z,11.40
2022-12-09T16:28:10.884Z,11.90
2022-12-09T16:30:54.135Z,11.60
2022-12-09T16:33:25.418Z,11.30
2022-12-09T16:36:07.968Z,8.90
2022-12-09T16:38:38.111Z,11.80
2022-12-09T16:41:11.504Z,10.80
2022-12-09T16:43:55.379Z,11.90
2022-12-09T16:46:37.688Z,13.80
2022-12-09T16:49:11.478Z,16.40
2022-12-09T16:51:41.356Z,15.20
2022-12-09T16:54:20.895Z,14.30
2022-12-09T16:56:51.732Z,13.40
2022-12-09T16:59:21.546Z,14.60
2022-12-09T17:01:51.547Z,12.80
2022-12-09T17:04:29.684Z,14.50
2022-12-09T17:06:59.538Z,14.30
2022-12-09T17:09:28.692Z,14.40
2022-12-09T17:11:58.271Z,14.20
2022-12-09T17:14:27.949Z,16.20
2022-12-09T17:16:57.688Z,14.60
2022-12-09T17:19:28.123Z,16.20
2022-12-09T17:21:58.567Z,16.10
2022-12-09T17:24:27.597Z,16.40
2022-12-09T17:26:57.576Z,17.10
2022-12-09T17:29:28.233Z,16.50
2022-12-09T17:31:57.758Z,15.30
2022-12-09T17:34:27.291Z,16.20
2022-12-09T17:36:56.620Z,15.70
2022-12-09T17:39:25.488Z,15.10
2022-12-09T17:41:54.947Z,15.60
2022-12-09T17:44:23.934Z,17.40
2022-12-09T17:46:53.114Z,16.50
2022-12-09T17:49:22.237Z,16.70
2022-12-09T17:51:53.696Z,16.50
2022-12-09T17:54:23.070Z,16.90
2022-12-09T17:56:53.142Z,17.20
2022-12-09T17:59:21.801Z,15.10
2022-12-09T18:01:52.814Z,13.80
2022-12-09T18:04:21.864Z,15.70
2022-12-09T18:06:50.863Z,14.60
2022-12-09T18:09:20.580Z,14.50
2022-12-09T18:11:52.461Z,13.90
2022-12-09T18:14:21.745Z,17.50
2022-12-09T18:16:55.912Z,17.20
2022-12-09T18:19:25.608Z,16.50
2022-12-09T18:21:55.271Z,12.50
2022-12-09T18:24:24.045Z,15.80
2022-12-09T18:26:53.348Z,20.40
2022-12-09T18:29:22.174Z,15.70
2022-12-09T18:31:56.155Z,11.50
2022-12-09T18:34:26.704Z,16.90
2022-12-09T18:36:57.289Z,17.20
2022-12-09T18:39:30.551Z,19.40
2022-12-09T18:42:04.076Z,16.20
2022-12-09T18:44:34.050Z,12.50
2022-12-09T18:47:10.380Z,15.10
2022-12-09T18:49:46.294Z,17.00
2022-12-09T18:52:15.666Z,15.00
2022-12-09T18:54:48.808Z,17.70
2022-12-09T18:58:11.317Z,17.40
2022-12-09T19:00:43.403Z,12.60
2022-12-09T19:03:14.244Z,14.90
2022-12-09T19:05:43.711Z,14.70
2022-12-09T19:08:13.226Z,19.90
2022-12-09T19:10:42.750Z,15.10
2022-12-09T19:13:11.608Z,14.00
2022-12-09T19:15:40.738Z,17.30
2022-12-09T19:18:10.972Z,14.40
2022-12-09T19:20:40.685Z,15.80
2022-12-09T19:23:10.104Z,17.80
2022-12-09T19:29:23.456Z,18.30
2022-12-09T19:31:54.304Z,16.10
2022-12-09T19:34:29.205Z,13.70
2022-12-09T19:42:55.728Z,16.90
2022-12-09T19:54:14.955Z,15.20
2022-12-09T19:56:46.804Z,16.90
2022-12-09T19:59:16.946Z,17.70
2022-12-09T20:01:48.179Z,18.80
2022-12-09T20:05:12.470Z,20.70
2022-12-09T20:07:54.526Z,27.90
2022-12-09T20:10:25.570Z,24.10
2022-12-09T20:12:57.099Z,21.60
2022-12-09T20:15:27.621Z,18.00
2022-12-09T20:18:19.166Z,18.00
2022-12-09T20:20:52.212Z,19.70
2022-12-09T20:30:49.620Z,13.80
2022-12-09T20:33:20.714Z,20.60
2022-12-09T20:35:54.471Z,18.60
2022-12-09T20:38:29.520Z,22.10
2022-12-09T20:41:04.047Z,13.70
2022-12-09T20:43:39.714Z,12.40
2022-12-09T20:46:17.907Z,14.40
2022-12-09T20:48:48.223Z,19.30
2022-12-09T20:51:19.896Z,19.00
2022-12-09T20:53:49.444Z,18.10
2022-12-09T20:56:21.963Z,16.60
2022-12-09T20:58:58.878Z,18.70
2022-12-09T21:01:33.824Z,19.00
2022-12-09T21:04:07.518Z,19.50
2022-12-09T21:06:47.842Z,18.50
2022-12-09T21:09:45.340Z,18.60
2022-12-09T21:12:14.810Z,17.10
2022-12-09T21:14:43.899Z,12.10
2022-12-09T21:17:15.486Z,13.20
2022-12-09T21:19:46.974Z,17.60
2022-12-09T21:22:37.420Z,17.60
2022-12-09T21:29:40.624Z,19.90
2022-12-09T21:32:31.091Z,15.60
2022-12-09T21:35:20.182Z,17.40
2022-12-09T21:38:07.816Z,15.70
2022-12-09T21:41:19.348Z,20.50
2022-12-09T21:43:50.049Z,16.40
2022-12-09T21:46:36.868Z,20.40
2022-12-09T21:49:13.311Z,17.00
2022-12-09T21:51:47.743Z,16.70
2022-12-09T21:54:53.717Z,19.10
2022-12-09T21:57:26.755Z,14.80
2022-12-09T21:59:58.214Z,18.20
2022-12-09T22:02:27.365Z,23.50
2022-12-09T22:04:56.706Z,18.70
2022-12-09T22:07:26.671Z,22.50
2022-12-09T22:09:55.909Z,22.70
2022-12-09T22:12:25.607Z,22.60
2022-12-09T22:14:55.797Z,16.80
2022-12-09T22:17:26.055Z,18.50
2022-12-09T22:20:13.828Z,18.60
2022-12-09T22:22:43.307Z,17.90
2022-12-09T22:25:11.893Z,21.50
2022-12-09T22:27:41.581Z,19.40
2022-12-09T22:30:11.001Z,17.80
2022-12-09T22:32:41.565Z,16.60
2022-12-09T22:35:11.848Z,18.00
2022-12-09T22:37:44.211Z,12.50
2022-12-09T22:40:13.316Z,17.30
2022-12-09T22:42:41.448Z,19.60
2022-12-09T22:45:10.281Z,18.40
2022-12-09T22:47:38.649Z,17.40
2022-12-09T22:50:07.813Z,19.20
2022-12-09T22:52:37.265Z,13.90
2022-12-09T22:55:07.800Z,19.20
2022-12-09T22:57:37.297Z,16.90
2022-12-09T23:00:12.128Z,14.90
2022-12-09T23:02:41.426Z,14.50
2022-12-09T23:05:10.629Z,15.80
2022-12-09T23:07:39.728Z,11.30
2022-12-09T23:10:09.115Z,18.10
2022-12-09T23:12:38.018Z,18.50
2022-12-09T23:15:06.862Z,17.20
2022-12-09T23:17:35.286Z,17.30
2022-12-09T23:20:05.125Z,12.70
2022-12-09T23:22:34.261Z,16.10
2022-12-09T23:25:03.082Z,12.70
2022-12-09T23:27:32.960Z,18.50
2022-12-09T23:30:01.454Z,17.10
2022-12-09T23:32:30.049Z,16.60
2022-12-09T23:35:01.935Z,15.10
2022-12-09T23:37:33.071Z,18.70
2022-12-09T23:40:02.282Z,17.10
2022-12-09T23:42:32.586Z,20.70
2022-12-09T23:45:03.436Z,16.90
2022-12-09T23:47:34.975Z,15.20
2022-12-09T23:50:06.562Z,17.50
2022-12-09T23:52:40.788Z,16.10
2022-12-09T23:55:12.047Z,17.80
2022-12-09T23:57:41.474Z,12.00
